Time;durP1;ratioP1;P1;durP2;ratioP2;P2;SDS_P1;SDS_P2;PMS_P1;PMS_P2;Temp;Humidity;BMP_temperature;BMP_pressure;BME280_temperature;BME280_humidity;BME280_pressure;Samples;Min_cycle;Max_cycle;Signal;HPM_P1;HPM_P2
2022/01/30 00:01:09;;;;;;;4.33;2.20;;;10.30;99.90;;;;;;6233132;23;20619;-94
2022/01/30 00:03:44;;;;;;;4.23;1.90;;;10.30;99.90;;;;;;6232899;23;20172;-94
2022/01/30 00:06:16;;;;;;;5.07;2.10;;;10.20;99.90;;;;;;6232474;23;20164;-93
2022/01/30 00:08:48;;;;;;;2.53;2.00;;;10.10;99.90;;;;;;6227158;23;20161;-93
2022/01/30 00:11:28;;;;;;;2.40;1.70;;;10.10;99.90;;;;;;6230091;23;20178;-93
2022/01/30 00:14:03;;;;;;;1.93;1.70;;;9.90;99.90;;;;;;6241621;23;20191;-95
2022/01/30 00:16:37;;;;;;;2.77;2.10;;;9.80;99.90;;;;;;6242067;23;20160;-96
2022/01/30 00:19:17;;;;;;;4.13;2.30;;;9.80;99.90;;;;;;6192360;23;20164;-93
2022/01/30 00:21:59;;;;;;;4.20;2.40;;;9.70;99.90;;;;;;6239002;23;20187;-94
2022/01/30 00:24:43;;;;;;;2.13;1.90;;;9.50;99.90;;;;;;6238123;23;20156;-93
2022/01/30 00:27:18;;;;;;;3.17;2.30;;;9.40;99.90;;;;;;6233152;23;20168;-94
2022/01/30 00:29:55;;;;;;;3.20;2.37;;;9.30;99.90;;;;;;6207861;23;20175;-93
2022/01/30 00:32:26;;;;;;;3.37;2.67;;;9.20;99.90;;;;;;6228123;23;20196;-91
2022/01/30 00:35:19;;;;;;;3.40;2.33;;;9.10;99.90;;;;;;6233526;23;20256;-94
2022/01/30 00:37:50;;;;;;;5.57;2.47;;;8.90;99.90;;;;;;6229592;23;20238;-93
2022/01/30 00:40:37;;;;;;;3.33;2.27;;;8.80;99.90;;;;;;6230401;23;20231;-94
2022/01/30 00:43:09;;;;;;;4.67;2.10;;;8.70;99.90;;;;;;6226485;23;20168;-94
2022/01/30 00:45:43;;;;;;;4.13;2.20;;;8.60;99.90;;;;;;6208725;23;20181;-94
2022/01/30 00:48:16;;;;;;;3.30;2.27;;;8.50;99.90;;;;;;6229048;23;20176;-91
2022/01/30 00:56:21;;;;;;;2.70;2.00;;;8.40;99.90;;;;;;6235780;23;20195;-94
2022/01/30 01:01:34;;;;;;;2.83;1.60;;;8.30;99.90;;;;;;6264694;22;20181;-93
2022/01/30 01:04:07;;;;;;;4.47;2.00;;;8.20;99.90;;;;;;6267846;22;20202;-93
2022/01/30 01:06:40;;;;;;;4.77;1.93;;;8.20;99.90;;;;;;6264909;22;20180;-92
2022/01/30 01:09:12;;;;;;;5.57;1.93;;;8.10;99.90;;;;;;6265178;23;20247;-94
2022/01/30 01:12:12;;;;;;;2.63;1.80;;;8.10;99.90;;;;;;6266649;22;20187;-93
2022/01/30 01:23:27;;;;;;;3.73;2.07;;;7.90;99.90;;;;;;6242706;23;20175;-93
2022/01/30 01:26:02;;;;;;;2.93;1.93;;;7.90;99.90;;;;;;6268026;22;20202;-93
2022/01/30 01:28:34;;;;;;;3.07;2.03;;;7.80;99.90;;;;;;6268263;22;20171;-93
2022/01/30 01:31:08;;;;;;;3.03;1.80;;;7.70;99.90;;;;;;6263713;23;20198;-93
2022/01/30 01:33:56;;;;;;;5.43;2.30;;;7.70;99.90;;;;;;6263748;22;20203;-93
2022/01/30 01:36:27;;;;;;;5.77;2.10;;;7.60;99.90;;;;;;6272161;22;20169;-93
2022/01/30 01:38:58;;;;;;;3.77;2.30;;;7.60;99.90;;;;;;6272408;22;20175;-93
2022/01/30 01:41:31;;;;;;;4.67;2.30;;;7.60;99.90;;;;;;6272774;22;20175;-92
2022/01/30 01:44:04;;;;;;;4.53;2.50;;;7.60;99.90;;;;;;6268391;22;20222;-93
2022/01/30 01:46:36;;;;;;;4.37;2.40;;;7.50;99.90;;;;;;6270007;23;20258;-94
2022/01/30 01:49:18;;;;;;;3.67;2.30;;;7.50;99.90;;;;;;6271951;22;20190;-92
2022/01/30 01:52:14;;;;;;;4.40;2.43;;;7.50;99.90;;;;;;6269539;23;20178;-92
2022/01/30 01:54:46;;;;;;;3.27;2.07;;;7.50;99.90;;;;;;6263488;22;20200;-93
2022/01/30 01:57:18;;;;;;;5.10;2.30;;;7.50;99.90;;;;;;6262926;23;20191;-93
2022/01/30 01:59:50;;;;;;;4.40;2.90;;;7.40;99.90;;;;;;6260235;23;20195;-92
2022/01/30 02:02:23;;;;;;;4.93;2.80;;;7.40;99.90;;;;;;6262376;22;20206;-93
2022/01/30 02:04:58;;;;;;;5.07;2.77;;;7.40;99.90;;;;;;6263248;22;20175;-93
2022/01/30 02:12:51;;;;;;;2.93;2.23;;;7.40;99.90;;;;;;6207670;22;20295;-87
2022/01/30 02:23:55;;;;;;;3.30;2.57;;;7.40;99.90;;;;;;6243183;23;20224;-91
2022/01/30 02:24:06;;;;;;;4.27;2.67;;;7.50;99.90;;;;;;6217318;23;20169;-90
2022/01/30 02:26:40;;;;;;;5.20;3.10;;;7.50;99.90;;;;;;6212975;23;20155;-93
2022/01/30 02:29:14;;;;;;;5.17;2.93;;;7.50;99.90;;;;;;6238813;23;20171;-92
2022/01/30 02:31:46;;;;;;;7.57;3.30;;;7.50;99.90;;;;;;6238067;23;20176;-92
2022/01/30 02:34:19;;;;;;;6.97;2.90;;;7.50;99.90;;;;;;6237990;23;20203;-93
2022/01/30 02:36:51;;;;;;;3.73;2.83;;;7.60;99.90;;;;;;6211831;23;20560;-93
2022/01/30 02:39:26;;;;;;;5.43;3.17;;;7.70;99.90;;;;;;6238148;23;20189;-94
2022/01/30 02:41:58;;;;;;;4.63;3.30;;;7.70;99.90;;;;;;6238580;23;20202;-93
2022/01/30 02:44:36;;;;;;;4.23;3.00;;;8.00;99.90;;;;;;6237750;23;20240;-94
2022/01/30 02:47:23;;;;;;;3.33;2.73;;;8.20;99.90;;;;;;6236007;23;20183;-93
2022/01/30 02:52:56;;;;;;;2.93;2.63;;;8.50;99.90;;;;;;6237119;23;20199;-93
2022/01/30 02:55:36;;;;;;;4.80;2.73;;;8.60;99.90;;;;;;6218139;23;20196;-94
2022/01/30 02:58:08;;;;;;;4.83;2.57;;;8.70;99.90;;;;;;6241693;23;20184;-93
2022/01/30 03:00:41;;;;;;;5.70;3.07;;;8.70;99.90;;;;;;6235430;22;20199;-84
2022/01/30 03:03:13;;;;;;;3.63;2.47;;;8.80;99.90;;;;;;6242329;23;20172;-92
2022/01/30 03:05:48;;;;;;;4.73;2.60;;;8.80;99.90;;;;;;6227211;23;20255;-90
2022/01/30 03:10:59;;;;;;;4.80;2.77;;;9.00;99.90;;;;;;6263795;22;20266;-92
2022/01/30 03:13:32;;;;;;;4.93;2.97;;;9.00;99.90;;;;;;6266661;23;20231;-92
2022/01/30 03:16:04;;;;;;;3.73;2.60;;;9.10;99.90;;;;;;6266814;22;20374;-92
2022/01/30 03:18:37;;;;;;;3.03;2.73;;;9.10;99.90;;;;;;6262360;22;20650;-92
2022/01/30 03:21:07;;;;;;;3.97;2.83;;;9.00;99.90;;;;;;6269248;22;20168;-92
2022/01/30 03:23:39;;;;;;;4.70;2.70;;;9.10;99.90;;;;;;6269832;22;20172;-92
2022/01/30 03:26:18;;;;;;;3.90;2.63;;;9.10;99.90;;;;;;6261810;22;20191;-93
2022/01/30 03:28:52;;;;;;;3.30;2.60;;;9.10;99.90;;;;;;6268110;22;20171;-93
2022/01/30 03:31:23;;;;;;;3.97;2.80;;;9.10;99.90;;;;;;6258349;22;20590;-93
2022/01/30 03:33:54;;;;;;;3.17;2.60;;;9.10;99.90;;;;;;6255565;22;20176;-93
2022/01/30 03:36:26;;;;;;;3.77;2.83;;;9.10;99.90;;;;;;6255784;22;20505;-93
2022/01/30 03:39:02;;;;;;;4.17;2.60;;;9.10;99.90;;;;;;6262893;22;20175;-93
2022/01/30 03:41:36;;;;;;;3.47;2.70;;;9.10;99.90;;;;;;6267206;22;20175;-93
2022/01/30 03:44:07;;;;;;;6.40;3.13;;;9.10;99.90;;;;;;6257827;22;20192;-93
2022/01/30 03:49:08;;;;;;;3.47;2.70;;;9.10;99.90;;;;;;6195782;23;20189;-92
2022/01/30 03:51:40;;;;;;;3.20;2.60;;;9.10;99.90;;;;;;6195402;23;20211;-92
2022/01/30 03:54:11;;;;;;;3.10;2.57;;;9.20;99.90;;;;;;6169980;23;20200;-92
2022/01/30 03:56:44;;;;;;;3.87;3.10;;;9.20;99.90;;;;;;6192820;23;20181;-91
2022/01/30 03:59:17;;;;;;;4.40;2.93;;;9.20;99.90;;;;;;6193899;23;20173;-93
2022/01/30 04:01:48;;;;;;;3.20;2.73;;;9.20;99.90;;;;;;6194188;23;20210;-92
2022/01/30 04:04:20;;;;;;;5.07;3.00;;;9.30;99.90;;;;;;6197685;23;20181;-91
2022/01/30 04:06:53;;;;;;;5.33;2.90;;;9.30;99.90;;;;;;6211659;23;20239;-92
2022/01/30 04:09:25;;;;;;;3.40;2.97;;;9.20;99.90;;;;;;6210828;23;20176;-93
2022/01/30 04:11:59;;;;;;;3.90;2.90;;;9.20;99.90;;;;;;6183600;23;20169;-92
2022/01/30 04:14:31;;;;;;;4.13;2.93;;;9.10;99.90;;;;;;6182573;23;20153;-93
2022/01/30 04:17:02;;;;;;;4.47;2.93;;;9.10;99.90;;;;;;6209216;23;20223;-94
2022/01/30 04:19:33;;;;;;;4.50;3.00;;;9.20;99.90;;;;;;6206206;23;20177;-93
2022/01/30 04:22:05;;;;;;;5.53;3.60;;;9.10;99.90;;;;;;6211786;23;20168;-92
2022/01/30 04:24:37;;;;;;;3.63;3.00;;;9.10;99.90;;;;;;6284203;22;20228;-91
2022/01/30 04:27:11;;;;;;;4.43;2.73;;;9.10;99.90;;;;;;6302895;22;20198;-91
2022/01/30 04:29:42;;;;;;;3.80;3.17;;;9.20;99.90;;;;;;6257976;22;20196;-94
2022/01/30 04:32:15;;;;;;;5.73;3.00;;;9.20;99.90;;;;;;6242395;23;20157;-92
2022/01/30 04:34:53;;;;;;;3.80;2.97;;;9.20;99.90;;;;;;6242836;23;20157;-92
2022/01/30 04:37:31;;;;;;;3.50;2.57;;;9.20;99.90;;;;;;6239896;23;20179;-91
2022/01/30 04:40:34;;;;;;;4.50;2.93;;;9.10;99.90;;;;;;6204371;23;20187;-92
2022/01/30 04:57:39;;;;;;;4.63;2.93;;;9.00;99.90;;;;;;6231234;23;20187;-94
2022/01/30 05:00:28;;;;;;;4.50;3.00;;;9.10;99.90;;;;;;6227948;23;20256;-92
2022/01/30 05:03:17;;;;;;;3.23;2.57;;;9.00;99.90;;;;;;6231709;23;20614;-92
2022/01/30 05:06:00;;;;;;;4.60;3.30;;;9.00;99.90;;;;;;6213362;23;20217;-93
2022/01/30 05:08:33;;;;;;;4.00;3.10;;;9.00;99.90;;;;;;6237448;23;20168;-91
2022/01/30 05:11:07;;;;;;;4.70;2.80;;;9.00;99.90;;;;;;6239388;23;20163;-90
2022/01/30 05:13:44;;;;;;;5.87;3.40;;;9.00;99.90;;;;;;6241407;23;20228;-91
2022/01/30 05:16:22;;;;;;;5.73;2.90;;;8.90;99.90;;;;;;6217302;23;20187;-93
2022/01/30 05:19:00;;;;;;;6.17;3.40;;;8.90;99.90;;;;;;6241149;23;20192;-92
2022/01/30 05:21:34;;;;;;;4.33;3.30;;;8.90;99.90;;;;;;6212977;23;20163;-93
2022/01/30 05:24:19;;;;;;;5.70;3.70;;;8.90;99.90;;;;;;6242968;23;20161;-92
2022/01/30 05:26:56;;;;;;;3.93;2.93;;;8.90;99.90;;;;;;6208945;23;20214;-92
2022/01/30 05:29:29;;;;;;;4.57;3.33;;;9.00;99.90;;;;;;6232722;23;20198;-91
2022/01/30 05:32:05;;;;;;;4.70;3.20;;;8.90;99.90;;;;;;6233868;23;20187;-91
2022/01/30 05:34:36;;;;;;;4.47;3.33;;;8.90;99.90;;;;;;6234689;23;20188;-93
2022/01/30 05:37:12;;;;;;;4.43;3.13;;;8.80;99.90;;;;;;6242796;23;20161;-93
2022/01/30 05:39:43;;;;;;;5.30;3.20;;;8.80;99.90;;;;;;6243489;23;20176;-92
2022/01/30 05:42:19;;;;;;;5.27;3.47;;;8.80;99.90;;;;;;6241492;23;20190;-92
2022/01/30 05:44:58;;;;;;;3.97;3.17;;;8.80;99.90;;;;;;6238446;23;20231;-93
2022/01/30 05:50:11;;;;;;;6.23;3.40;;;8.80;99.90;;;;;;6219256;22;20222;-93
2022/01/30 05:52:46;;;;;;;6.23;3.73;;;8.70;99.90;;;;;;6233518;23;20180;-92
2022/01/30 05:55:17;;;;;;;8.23;3.43;;;8.70;99.90;;;;;;6230769;23;20168;-92
2022/01/30 05:57:52;;;;;;;4.97;3.40;;;8.70;99.90;;;;;;6230666;23;20180;-93
2022/01/30 06:00:24;;;;;;;5.37;3.57;;;8.70;99.90;;;;;;6200304;23;20203;-93
2022/01/30 06:02:55;;;;;;;4.93;2.93;;;8.70;99.90;;;;;;6226124;23;20627;-93
2022/01/30 06:05:30;;;;;;;5.47;3.27;;;8.70;99.90;;;;;;6230327;23;20167;-94
2022/01/30 06:08:11;;;;;;;3.80;3.07;;;8.70;99.90;;;;;;6228830;23;20172;-93
2022/01/30 06:10:42;;;;;;;4.53;3.40;;;8.70;99.90;;;;;;6228322;23;20176;-93
2022/01/30 06:13:17;;;;;;;6.50;3.20;;;8.70;99.90;;;;;;6230637;23;20234;-91
2022/01/30 06:15:48;;;;;;;4.60;3.20;;;8.70;99.90;;;;;;6228310;23;20172;-93
2022/01/30 06:18:20;;;;;;;4.10;3.03;;;8.70;99.90;;;;;;6226829;23;20236;-92
2022/01/30 06:20:54;;;;;;;6.03;3.33;;;8.70;99.90;;;;;;6202899;23;20176;-93
2022/01/30 06:23:26;;;;;;;5.37;3.10;;;8.70;99.90;;;;;;6228815;23;20169;-93
2022/01/30 06:25:58;;;;;;;3.90;3.40;;;8.70;99.90;;;;;;6227300;23;20243;-92
2022/01/30 06:28:29;;;;;;;11.40;3.20;;;8.70;99.90;;;;;;6201985;23;20179;-92
2022/01/30 06:31:01;;;;;;;3.70;3.13;;;8.70;99.90;;;;;;6228654;23;20192;-92
2022/01/30 06:33:34;;;;;;;5.40;3.20;;;8.70;99.90;;;;;;6230246;23;20195;-91
2022/01/30 06:36:18;;;;;;;5.50;3.30;;;8.70;99.90;;;;;;6207998;23;20490;-93
2022/01/30 06:38:53;;;;;;;4.17;2.90;;;8.70;99.90;;;;;;6229449;23;20177;-94
2022/01/30 06:41:25;;;;;;;4.47;2.90;;;8.70;99.90;;;;;;6232240;23;20175;-91
2022/01/30 06:43:57;;;;;;;7.13;3.43;;;8.70;99.90;;;;;;6217570;23;20216;-92
2022/01/30 06:46:28;;;;;;;5.00;3.30;;;8.70;99.90;;;;;;6242031;23;20243;-94
2022/01/30 06:48:59;;;;;;;4.40;3.00;;;8.60;99.90;;;;;;6242756;23;20183;-93
2022/01/30 06:51:36;;;;;;;3.57;2.57;;;8.70;99.90;;;;;;6237160;23;20179;-93
2022/01/30 06:54:07;;;;;;;4.63;3.20;;;8.70;99.90;;;;;;6240684;23;20167;-92
2022/01/30 06:56:41;;;;;;;5.23;2.80;;;8.60;99.90;;;;;;6232651;23;20187;-93
2022/01/30 06:59:12;;;;;;;4.67;3.20;;;8.60;99.90;;;;;;6243466;23;20171;-92
2022/01/30 07:01:43;;;;;;;4.13;3.10;;;8.60;99.90;;;;;;6243488;23;20164;-93
2022/01/30 07:04:20;;;;;;;3.97;2.97;;;8.60;99.90;;;;;;6243187;23;20166;-93
2022/01/30 07:06:58;;;;;;;4.83;2.77;;;8.60;99.90;;;;;;6235939;23;20267;-93
2022/01/30 07:09:31;;;;;;;4.93;3.17;;;8.60;99.90;;;;;;6236036;23;20331;-93
2022/01/30 07:12:03;;;;;;;4.03;3.17;;;8.60;99.90;;;;;;6231564;23;20188;-93
2022/01/30 07:14:34;;;;;;;3.90;3.30;;;8.50;99.90;;;;;;6224677;23;20169;-92
2022/01/30 07:17:06;;;;;;;6.50;3.23;;;8.60;99.90;;;;;;6225904;23;20172;-92
2022/01/30 07:19:37;;;;;;;3.67;2.90;;;8.60;99.90;;;;;;6226736;23;20179;-92
2022/01/30 07:22:10;;;;;;;8.07;3.83;;;8.60;99.90;;;;;;6225204;23;20176;-92
2022/01/30 07:24:41;;;;;;;6.10;3.00;;;8.50;99.90;;;;;;6226718;23;20178;-92
2022/01/30 07:27:14;;;;;;;4.63;3.17;;;8.50;99.90;;;;;;6225407;23;20290;-92
2022/01/30 07:29:45;;;;;;;6.23;3.37;;;8.40;99.90;;;;;;6225995;23;20533;-92
2022/01/30 07:32:16;;;;;;;3.90;3.00;;;8.40;99.90;;;;;;6226187;23;20183;-92
2022/01/30 07:34:50;;;;;;;5.27;3.00;;;8.40;99.90;;;;;;6224895;23;20184;-92
2022/01/30 07:37:23;;;;;;;4.77;2.93;;;8.40;99.90;;;;;;6228516;23;20221;-92
2022/01/30 07:39:54;;;;;;;3.93;3.07;;;8.40;99.90;;;;;;6226492;23;20500;-92
2022/01/30 07:42:26;;;;;;;3.97;2.97;;;8.40;99.90;;;;;;6224523;23;20206;-92
2022/01/30 07:44:58;;;;;;;5.63;3.20;;;8.40;99.90;;;;;;6209222;23;20196;-92
2022/01/30 07:47:28;;;;;;;3.77;3.20;;;8.30;99.90;;;;;;6205428;23;20267;-91
2022/01/30 07:49:59;;;;;;;4.13;3.20;;;8.40;99.90;;;;;;6196968;23;20181;-92
2022/01/30 07:52:32;;;;;;;4.63;3.37;;;8.30;99.90;;;;;;6195428;23;20173;-92
2022/01/30 07:55:04;;;;;;;6.17;3.50;;;8.30;99.90;;;;;;6193876;23;20172;-93
2022/01/30 07:57:35;;;;;;;5.53;3.20;;;8.30;99.90;;;;;;6206852;23;20165;-93
2022/01/30 08:00:09;;;;;;;6.27;3.80;;;8.20;99.90;;;;;;6205115;23;20255;-94
2022/01/30 08:02:41;;;;;;;7.17;3.70;;;8.20;99.90;;;;;;6193921;23;20201;-92
2022/01/30 08:05:12;;;;;;;4.27;2.90;;;8.10;99.90;;;;;;6192892;23;20264;-92
2022/01/30 08:07:44;;;;;;;5.43;3.40;;;8.10;99.90;;;;;;6190095;23;20207;-91
2022/01/30 08:10:17;;;;;;;6.73;3.50;;;8.00;99.90;;;;;;6192837;23;20180;-91
2022/01/30 08:12:48;;;;;;;4.87;3.17;;;8.00;99.90;;;;;;6193743;23;20173;-93
2022/01/30 08:15:19;;;;;;;4.67;3.37;;;7.90;99.90;;;;;;6196187;23;20169;-93
2022/01/30 08:17:50;;;;;;;5.20;3.87;;;7.90;99.90;;;;;;6202410;23;20212;-93
2022/01/30 08:20:25;;;;;;;5.50;3.70;;;7.80;99.90;;;;;;6192658;23;20173;-93
2022/01/30 08:23:00;;;;;;;7.17;3.87;;;7.70;99.90;;;;;;6192521;23;20176;-93
2022/01/30 08:25:31;;;;;;;6.47;3.97;;;7.60;99.90;;;;;;6192564;23;20176;-93
2022/01/30 08:28:02;;;;;;;6.83;3.80;;;7.40;99.90;;;;;;6190752;23;20204;-93
2022/01/30 08:30:35;;;;;;;5.70;4.07;;;7.40;99.90;;;;;;6165855;23;20176;-92
2022/01/30 08:33:06;;;;;;;5.03;3.83;;;7.20;99.90;;;;;;6192238;23;20627;-93
2022/01/30 08:35:38;;;;;;;5.63;4.00;;;7.20;99.90;;;;;;6192489;23;20185;-93
2022/01/30 08:38:18;;;;;;;5.60;3.77;;;7.10;99.90;;;;;;6193711;23;20235;-93
2022/01/30 08:40:49;;;;;;;5.97;3.80;;;7.00;99.90;;;;;;6193572;23;20177;-93
2022/01/30 08:43:21;;;;;;;5.73;3.70;;;6.90;99.90;;;;;;6193324;23;20200;-92
2022/01/30 08:45:53;;;;;;;5.57;4.13;;;6.80;99.90;;;;;;6194596;23;20225;-92
2022/01/30 08:48:25;;;;;;;5.27;3.53;;;6.80;99.90;;;;;;6198595;23;20248;-91
2022/01/30 08:50:57;;;;;;;4.83;3.50;;;6.70;99.90;;;;;;6201738;23;20174;-93
2022/01/30 08:53:30;;;;;;;7.17;4.07;;;6.60;99.90;;;;;;6193875;23;20618;-91
2022/01/30 08:56:02;;;;;;;5.40;3.77;;;6.60;99.90;;;;;;6174129;23;20173;-92
2022/01/30 08:58:34;;;;;;;5.90;3.83;;;6.60;99.90;;;;;;6166320;23;20184;-91
2022/01/30 09:01:06;;;;;;;6.50;3.93;;;6.60;99.90;;;;;;6196372;23;20239;-92
2022/01/30 09:03:38;;;;;;;4.63;3.67;;;6.50;99.90;;;;;;6197840;23;20177;-93
2022/01/30 09:06:09;;;;;;;5.00;3.70;;;6.50;99.90;;;;;;6196917;23;20197;-93
2022/01/30 09:08:42;;;;;;;4.43;3.37;;;6.50;99.90;;;;;;6165462;23;20231;-93
2022/01/30 09:11:14;;;;;;;4.87;3.83;;;6.50;99.90;;;;;;6210140;23;20176;-93
2022/01/30 09:13:46;;;;;;;4.43;3.70;;;6.40;99.90;;;;;;6186641;23;20157;-93
2022/01/30 09:16:17;;;;;;;3.00;2.70;;;6.40;99.90;;;;;;6212045;23;20184;-93
2022/01/30 09:18:49;;;;;;;3.80;2.97;;;6.40;99.90;;;;;;6210869;23;20216;-93
2022/01/30 09:21:22;;;;;;;4.13;3.00;;;6.40;99.90;;;;;;6211419;23;20184;-94
2022/01/30 09:23:55;;;;;;;4.03;3.10;;;6.40;99.90;;;;;;6210765;23;20216;-93
2022/01/30 09:26:28;;;;;;;4.60;3.17;;;6.50;99.90;;;;;;6162203;23;20175;-93
2022/01/30 09:29:03;;;;;;;5.87;2.90;;;6.50;99.90;;;;;;6208154;23;20671;-92
2022/01/30 09:31:53;;;;;;;4.90;3.10;;;6.50;99.90;;;;;;6194389;23;20184;-93
2022/01/30 09:34:24;;;;;;;5.47;3.10;;;6.40;99.90;;;;;;6200454;23;20188;-93
2022/01/30 09:36:55;;;;;;;4.73;3.00;;;6.40;99.90;;;;;;6201756;23;20157;-94
2022/01/30 09:39:30;;;;;;;4.43;3.30;;;6.30;99.90;;;;;;6195360;23;20628;-93
2022/01/30 09:42:02;;;;;;;3.47;2.80;;;6.20;99.90;;;;;;6193653;23;20176;-93
2022/01/30 09:44:39;;;;;;;2.87;2.50;;;6.30;99.90;;;;;;6193220;23;20196;-94
2022/01/30 09:47:12;;;;;;;5.37;2.77;;;6.20;99.90;;;;;;6192187;23;20472;-93
2022/01/30 09:49:49;;;;;;;3.70;2.50;;;6.20;99.90;;;;;;6193577;23;20196;-93
2022/01/30 09:52:20;;;;;;;3.10;2.80;;;6.20;99.90;;;;;;6209408;23;20160;-91
2022/01/30 09:54:54;;;;;;;4.40;3.20;;;6.20;99.90;;;;;;6209929;23;20177;-92
2022/01/30 09:57:25;;;;;;;6.37;3.00;;;6.00;99.90;;;;;;6208502;23;20251;-92
2022/01/30 09:59:58;;;;;;;3.77;2.67;;;6.00;99.90;;;;;;6211215;23;20176;-93
2022/01/30 10:02:30;;;;;;;4.50;2.90;;;6.10;99.90;;;;;;6221989;22;20200;-90
2022/01/30 10:05:01;;;;;;;6.13;3.37;;;6.10;99.90;;;;;;6231004;23;20223;-92
2022/01/30 10:07:50;;;;;;;4.30;3.13;;;6.10;99.90;;;;;;6225716;23;20238;-93
2022/01/30 10:10:28;;;;;;;4.23;3.00;;;6.10;99.90;;;;;;6232934;23;20181;-92
2022/01/30 10:13:05;;;;;;;5.67;2.93;;;6.10;99.90;;;;;;6233998;23;20157;-93
2022/01/30 10:15:51;;;;;;;4.10;3.10;;;6.10;99.90;;;;;;6226008;23;20242;-93
2022/01/30 10:18:23;;;;;;;3.17;2.63;;;6.10;99.90;;;;;;6223945;23;20184;-93
2022/01/30 10:20:55;;;;;;;3.47;2.93;;;6.10;99.90;;;;;;6224840;23;20179;-92
2022/01/30 10:23:34;;;;;;;3.80;2.97;;;6.10;99.90;;;;;;6224201;23;20203;-94
2022/01/30 10:26:09;;;;;;;4.07;2.73;;;6.10;99.90;;;;;;6225089;23;20193;-93
2022/01/30 10:28:42;;;;;;;4.80;3.20;;;6.20;99.90;;;;;;6223835;23;20238;-92
2022/01/30 10:31:18;;;;;;;3.67;2.70;;;6.10;99.90;;;;;;6224549;23;20169;-93
2022/01/30 10:33:51;;;;;;;3.77;2.70;;;6.10;99.90;;;;;;6225059;23;20255;-93
2022/01/30 10:36:24;;;;;;;4.53;3.07;;;6.20;99.90;;;;;;6225010;23;20176;-93
2022/01/30 10:39:04;;;;;;;5.43;3.10;;;6.20;99.90;;;;;;6225840;23;20169;-93
2022/01/30 10:41:53;;;;;;;3.53;2.80;;;6.20;99.90;;;;;;6226013;23;20165;-93
2022/01/30 10:44:25;;;;;;;4.33;2.93;;;6.20;99.90;;;;;;6225512;23;20230;-93
2022/01/30 10:46:56;;;;;;;4.40;2.77;;;6.20;99.90;;;;;;6224146;23;20231;-92
2022/01/30 10:49:27;;;;;;;3.43;2.53;;;6.20;99.90;;;;;;6222478;23;20263;-92
2022/01/30 10:52:00;;;;;;;4.80;2.50;;;6.20;99.90;;;;;;6224644;23;20173;-93
2022/01/30 10:54:34;;;;;;;3.80;2.77;;;6.20;99.90;;;;;;6225879;23;20169;-93
2022/01/30 10:57:08;;;;;;;6.23;3.00;;;6.20;99.90;;;;;;6224434;23;20211;-92
2022/01/30 10:59:46;;;;;;;4.50;2.97;;;6.20;99.90;;;;;;6227347;23;20170;-91
2022/01/30 11:02:18;;;;;;;3.63;2.87;;;6.20;99.90;;;;;;6241808;23;20188;-91
2022/01/30 11:04:51;;;;;;;3.70;3.10;;;6.20;99.90;;;;;;6241914;23;20188;-89
2022/01/30 11:07:30;;;;;;;3.27;2.80;;;6.20;99.90;;;;;;6241658;23;20153;-92
2022/01/30 11:10:07;;;;;;;3.10;2.30;;;6.20;99.90;;;;;;6239915;23;20223;-92
2022/01/30 11:12:46;;;;;;;3.20;2.40;;;6.10;99.90;;;;;;6213687;23;20176;-92
2022/01/30 11:15:22;;;;;;;2.70;2.20;;;6.10;99.90;;;;;;6236848;23;20176;-92
2022/01/30 11:17:55;;;;;;;5.60;2.83;;;6.00;99.90;;;;;;6228811;23;20473;-93
2022/01/30 11:20:28;;;;;;;5.60;3.03;;;6.00;99.90;;;;;;6225736;23;20188;-93
2022/01/30 11:23:01;;;;;;;5.30;2.80;;;6.00;99.90;;;;;;6226318;23;20453;-93
2022/01/30 11:25:35;;;;;;;3.70;2.80;;;6.10;99.90;;;;;;6228286;23;20480;-93
2022/01/30 11:28:10;;;;;;;3.97;2.70;;;6.10;99.90;;;;;;6225602;23;20176;-92
2022/01/30 11:30:52;;;;;;;3.83;2.87;;;6.10;99.90;;;;;;6228331;23;20259;-93
2022/01/30 11:33:24;;;;;;;5.67;2.90;;;6.00;99.90;;;;;;6227730;23;20203;-93
2022/01/30 11:35:55;;;;;;;4.03;2.57;;;5.90;99.90;;;;;;6230952;23;20165;-90
2022/01/30 11:38:26;;;;;;;4.10;2.40;;;5.90;99.90;;;;;;6240750;23;20192;-92
2022/01/30 11:41:18;;;;;;;3.53;2.50;;;5.90;99.90;;;;;;6242616;23;20164;-93
2022/01/30 11:44:28;;;;;;;5.07;2.33;;;5.90;99.90;;;;;;6242410;23;20171;-92
2022/01/30 11:47:25;;;;;;;3.50;2.70;;;6.00;99.90;;;;;;6241780;23;20227;-92
2022/01/30 11:50:08;;;;;;;2.77;2.50;;;5.90;99.90;;;;;;6240016;23;20183;-93
2022/01/30 11:52:51;;;;;;;3.20;2.43;;;6.00;99.90;;;;;;6232338;23;20176;-92
2022/01/30 11:55:43;;;;;;;3.47;2.40;;;5.90;99.90;;;;;;6229981;23;20621;-92
2022/01/30 11:58:41;;;;;;;3.23;2.60;;;6.00;99.90;;;;;;6200004;23;20172;-92
2022/01/30 12:01:38;;;;;;;3.40;2.70;;;5.90;99.90;;;;;;6216118;23;20180;-92
2022/01/30 12:04:17;;;;;;;3.17;2.43;;;5.90;99.90;;;;;;6227407;23;20710;-94
2022/01/30 12:06:50;;;;;;;3.00;2.33;;;5.90;99.90;;;;;;6222386;23;20795;-92
2022/01/30 12:09:27;;;;;;;3.37;2.60;;;5.90;99.90;;;;;;6222725;23;20204;-92
2022/01/30 12:12:05;;;;;;;4.87;2.67;;;5.80;99.90;;;;;;6224385;23;20200;-92
2022/01/30 12:15:00;;;;;;;3.37;2.43;;;5.80;99.90;;;;;;6199140;23;20189;-92
2022/01/30 12:17:50;;;;;;;3.90;2.80;;;5.80;99.90;;;;;;6223411;23;20191;-92
2022/01/30 12:20:22;;;;;;;6.00;2.93;;;5.80;99.90;;;;;;6226455;23;20181;-92
2022/01/30 12:22:54;;;;;;;5.67;3.40;;;5.80;99.90;;;;;;6222444;23;20172;-92
2022/01/30 12:25:37;;;;;;;6.37;3.77;;;5.90;99.90;;;;;;6226589;23;20175;-92
2022/01/30 12:28:16;;;;;;;4.83;3.40;;;6.10;99.90;;;;;;6222598;23;20176;-93
2022/01/30 12:30:52;;;;;;;3.77;3.00;;;6.10;99.90;;;;;;6224921;23;20196;-92
2022/01/30 12:33:44;;;;;;;4.93;3.20;;;6.10;99.90;;;;;;6225527;23;20238;-92
2022/01/30 12:36:20;;;;;;;17.27;3.67;;;6.10;99.90;;;;;;6196896;23;20181;-93
2022/01/30 12:39:03;;;;;;;5.00;3.53;;;6.10;99.90;;;;;;6225790;23;20168;-93
2022/01/30 12:41:35;;;;;;;5.17;3.73;;;6.10;99.90;;;;;;6232835;23;20173;-91
2022/01/30 12:44:09;;;;;;;5.93;3.80;;;6.10;99.90;;;;;;6241238;23;20209;-93
2022/01/30 12:46:46;;;;;;;5.37;3.90;;;6.10;99.90;;;;;;6240520;23;20246;-94
2022/01/30 12:49:21;;;;;;;5.87;3.97;;;6.30;99.90;;;;;;6227380;23;20203;-93
2022/01/30 12:51:54;;;;;;;6.03;4.23;;;6.40;99.90;;;;;;6202731;23;20175;-93
2022/01/30 12:54:27;;;;;;;5.83;4.33;;;6.40;99.90;;;;;;6239447;23;20171;-93
2022/01/30 12:56:58;;;;;;;5.50;4.00;;;6.50;99.90;;;;;;6240754;23;20156;-94
2022/01/30 12:59:30;;;;;;;5.97;3.67;;;6.50;99.90;;;;;;6241059;23;20160;-92
2022/01/30 13:02:06;;;;;;;5.67;3.43;;;6.50;99.90;;;;;;6240962;23;20199;-92
2022/01/30 13:04:39;;;;;;;6.33;3.70;;;6.60;99.90;;;;;;6240559;23;20166;-93
2022/01/30 13:07:14;;;;;;;6.00;4.00;;;6.60;99.90;;;;;;6239837;23;20173;-91
2022/01/30 13:09:46;;;;;;;5.83;3.83;;;6.60;99.90;;;;;;6240807;23;20202;-92
2022/01/30 13:12:19;;;;;;;5.03;3.63;;;6.70;99.90;;;;;;6236537;23;20165;-92
2022/01/30 13:14:50;;;;;;;5.97;3.90;;;6.90;99.90;;;;;;6236006;23;20188;-92
2022/01/30 13:17:29;;;;;;;6.17;4.20;;;6.90;99.90;;;;;;6235119;23;20176;-92
2022/01/30 13:20:03;;;;;;;5.07;3.90;;;6.90;99.90;;;;;;6236186;23;20176;-92
2022/01/30 13:22:37;;;;;;;4.13;3.13;;;6.90;99.90;;;;;;6237117;23;20228;-93
2022/01/30 13:25:09;;;;;;;5.43;3.60;;;7.00;99.90;;;;;;6236401;23;20548;-93
2022/01/30 13:27:41;;;;;;;5.80;3.70;;;7.10;99.90;;;;;;6235133;23;20176;-94
2022/01/30 13:30:20;;;;;;;5.00;3.23;;;7.20;99.90;;;;;;6237120;23;20218;-92
2022/01/30 13:32:53;;;;;;;4.23;3.47;;;7.10;99.90;;;;;;6235917;23;20173;-92
2022/01/30 13:35:29;;;;;;;5.60;3.70;;;7.00;99.90;;;;;;6236638;23;20176;-92
2022/01/30 13:38:05;;;;;;;4.67;3.47;;;7.00;99.90;;;;;;6234263;23;20237;-93
2022/01/30 13:40:42;;;;;;;6.77;3.97;;;7.10;99.90;;;;;;6235869;23;20168;-93
2022/01/30 13:43:20;;;;;;;6.33;3.60;;;7.10;99.90;;;;;;6231193;23;20177;-93
2022/01/30 13:48:52;;;;;;;5.20;3.47;;;7.10;99.90;;;;;;6109990;23;20182;-93
2022/01/30 13:51:26;;;;;;;4.43;2.90;;;7.00;99.90;;;;;;6209226;23;20201;-93
2022/01/30 13:54:09;;;;;;;5.07;3.13;;;7.10;99.90;;;;;;6233262;23;20168;-93
2022/01/30 13:56:40;;;;;;;5.60;3.63;;;7.20;99.90;;;;;;6240725;23;20176;-94
2022/01/30 13:59:11;;;;;;;4.30;3.10;;;7.20;99.90;;;;;;6239662;23;20157;-93
2022/01/30 14:01:42;;;;;;;4.60;3.50;;;7.20;99.90;;;;;;6239298;23;20199;-91
2022/01/30 14:04:14;;;;;;;6.03;3.70;;;7.30;99.90;;;;;;6238872;23;20169;-94
2022/01/30 14:06:49;;;;;;;5.50;3.70;;;7.20;99.90;;;;;;6230870;23;20467;-92
2022/01/30 14:09:25;;;;;;;4.03;3.53;;;7.20;99.90;;;;;;6227567;23;20539;-92
2022/01/30 14:12:04;;;;;;;4.73;3.20;;;7.30;99.90;;;;;;6227893;23;20192;-92
2022/01/30 14:14:38;;;;;;;5.00;3.60;;;7.30;99.90;;;;;;6200422;23;20169;-93
2022/01/30 14:17:14;;;;;;;6.00;5.10;;;7.40;99.90;;;;;;6223352;23;20168;-92
2022/01/30 14:19:50;;;;;;;5.00;3.50;;;7.40;99.90;;;;;;6225740;23;20175;-93
2022/01/30 14:22:33;;;;;;;5.43;3.30;;;7.50;99.90;;;;;;6225348;23;20199;-93
2022/01/30 14:25:08;;;;;;;3.80;3.40;;;7.50;99.90;;;;;;6228879;23;20260;-94
2022/01/30 14:27:41;;;;;;;4.93;3.20;;;7.60;99.90;;;;;;6232489;23;20179;-93
2022/01/30 14:30:13;;;;;;;4.60;3.60;;;7.50;99.90;;;;;;6234024;23;20203;-93
2022/01/30 14:32:44;;;;;;;4.50;3.27;;;7.50;99.90;;;;;;6227590;23;20185;-92
2022/01/30 14:35:15;;;;;;;3.17;2.87;;;7.40;99.90;;;;;;6198426;23;20180;-91